Time;durP1;ratioP1;P1;durP2;ratioP2;P2;SDS_P1;SDS_P2;PMS_P1;PMS_P2;Temp;Humidity;BMP_temperature;BMP_pressure;BME280_temperature;BME280_humidity;BME280_pressure;Samples;Min_cycle;Max_cycle;Signal;HPM_P1;HPM_P2
2022/11/24 00:00:00;;;;;;;1.2;1.2;;;;;;;7.7;100.0;100070;;;;
2022/11/24 00:01:10;;;;;;;1.2;1.2;;;;;;;7.7;100.0;100070;;;;
2022/11/24 00:02:00;;;;;;;1.2;1.2;;;;;;;7.7;100.0;100070;;;;
2022/11/24 00:03:00;;;;;;;1.2;1.2;;;;;;;7.6;100.0;100070;;;;
2022/11/24 00:04:02;;;;;;;1.2;1.2;;;;;;;7.6;100.0;100070;;;;
2022/11/24 00:05:00;;;;;;;1.2;1.2;;;;;;;7.6;100.0;100070;;;;
2022/11/24 00:06:02;;;;;;;1.2;1.2;;;;;;;7.6;100.0;100070;;;;
2022/11/24 00:07:00;;;;;;;1.2;1.2;;;;;;;7.7;100.0;100070;;;;
2022/11/24 00:08:00;;;;;;;1.2;1.2;;;;;;;7.7;100.0;100070;;;;
2022/11/24 00:09:00;;;;;;;1.2;1.2;;;;;;;7.6;100.0;100070;;;;
2022/11/24 00:10:00;;;;;;;1.2;1.2;;;;;;;7.6;100.0;100070;;;;
2022/11/24 00:11:04;;;;;;;1.2;1.2;;;;;;;7.6;100.0;100070;;;;
2022/11/24 00:12:00;;;;;;;1.2;1.2;;;;;;;7.6;100.0;100070;;;;
2022/11/24 00:13:00;;;;;;;1.2;1.2;;;;;;;7.6;100.0;100080;;;;
2022/11/24 00:14:00;;;;;;;1.2;1.2;;;;;;;7.6;100.0;100080;;;;
2022/11/24 00:15:00;;;;;;;1.2;1.2;;;;;;;7.6;100.0;100090;;;;
2022/11/24 00:16:10;;;;;;;1.2;1.2;;;;;;;7.6;100.0;100090;;;;
2022/11/24 00:17:00;;;;;;;1.2;1.2;;;;;;;7.6;100.0;100080;;;;
2022/11/24 00:18:00;;;;;;;1.2;1.2;;;;;;;7.6;100.0;100080;;;;
2022/11/24 00:19:01;;;;;;;1.2;1.2;;;;;;;7.7;100.0;100080;;;;
2022/11/24 00:20:00;;;;;;;1.2;1.2;;;;;;;7.7;100.0;100080;;;;
2022/11/24 00:21:00;;;;;;;1.2;1.2;;;;;;;7.7;100.0;100090;;;;
2022/11/24 00:22:00;;;;;;;1.2;1.2;;;;;;;7.7;100.0;100090;;;;
2022/11/24 00:23:00;;;;;;;1.2;1.2;;;;;;;7.6;100.0;100080;;;;
2022/11/24 00:24:00;;;;;;;1.2;1.2;;;;;;;7.6;100.0;100080;;;;
2022/11/24 00:25:00;;;;;;;1.2;1.2;;;;;;;7.6;100.0;100090;;;;
2022/11/24 00:26:07;;;;;;;1.2;1.2;;;;;;;7.6;100.0;100090;;;;
2022/11/24 00:27:00;;;;;;;1.2;1.2;;;;;;;7.6;100.0;100090;;;;
2022/11/24 00:28:00;;;;;;;1.2;1.2;;;;;;;7.6;100.0;100090;;;;
2022/11/24 00:29:02;;;;;;;1.2;1.2;;;;;;;7.6;100.0;100090;;;;
2022/11/24 00:30:00;;;;;;;1.2;1.2;;;;;;;7.6;100.0;100090;;;;
2022/11/24 00:31:00;;;;;;;1.2;1.2;;;;;;;7.6;100.0;100090;;;;
2022/11/24 00:32:04;;;;;;;1.2;1.2;;;;;;;7.6;100.0;100090;;;;
2022/11/24 00:33:00;;;;;;;1.2;1.2;;;;;;;7.6;100.0;100100;;;;
2022/11/24 00:34:01;;;;;;;2.1;2.0;;;;;;;7.6;100.0;100100;;;;
2022/11/24 00:35:00;;;;;;;2.1;2.0;;;;;;;7.6;100.0;100100;;;;
2022/11/24 00:36:00;;;;;;;2.1;2.0;;;;;;;7.6;100.0;100100;;;;
2022/11/24 00:37:00;;;;;;;2.1;2.0;;;;;;;7.7;100.0;100100;;;;
2022/11/24 00:38:00;;;;;;;2.1;2.0;;;;;;;7.7;100.0;100100;;;;
2022/11/24 00:39:01;;;;;;;2.1;2.0;;;;;;;7.5;100.0;100100;;;;
2022/11/24 00:40:00;;;;;;;2.1;2.0;;;;;;;7.5;100.0;100100;;;;
2022/11/24 00:41:00;;;;;;;2.1;2.0;;;;;;;7.7;100.0;100100;;;;
2022/11/24 00:42:00;;;;;;;2.1;2.0;;;;;;;7.7;100.0;100100;;;;
2022/11/24 00:43:00;;;;;;;2.1;2.0;;;;;;;7.6;100.0;100100;;;;
2022/11/24 00:44:00;;;;;;;2.1;2.0;;;;;;;7.6;100.0;100100;;;;
2022/11/24 00:45:00;;;;;;;2.1;2.0;;;;;;;7.7;100.0;100100;;;;
2022/11/24 00:46:00;;;;;;;2.1;2.0;;;;;;;7.7;100.0;100100;;;;
2022/11/24 00:47:00;;;;;;;2.1;2.0;;;;;;;7.6;100.0;100100;;;;
2022/11/24 00:48:00;;;;;;;2.1;2.0;;;;;;;7.6;100.0;100100;;;;
2022/11/24 00:49:00;;;;;;;2.1;2.0;;;;;;;7.6;100.0;100110;;;;
2022/11/24 00:50:00;;;;;;;2.1;2.0;;;;;;;7.6;100.0;100110;;;;
2022/11/24 00:51:01;;;;;;;2.1;2.0;;;;;;;7.6;100.0;100100;;;;
2022/11/24 00:52:00;;;;;;;2.1;2.0;;;;;;;7.6;100.0;100100;;;;
2022/11/24 00:53:00;;;;;;;2.1;2.0;;;;;;;7.6;100.0;100100;;;;
2022/11/24 00:54:00;;;;;;;1.1;1.1;;;;;;;7.6;100.0;100100;;;;
2022/11/24 00:55:00;;;;;;;1.1;1.1;;;;;;;7.7;100.0;100100;;;;
2022/11/24 00:56:02;;;;;;;1.1;1.1;;;;;;;7.7;100.0;100100;;;;
2022/11/24 00:57:00;;;;;;;1.1;1.1;;;;;;;7.6;100.0;100100;;;;
2022/11/24 00:58:00;;;;;;;1.1;1.1;;;;;;;7.6;100.0;100100;;;;
2022/11/24 00:59:00;;;;;;;1.1;1.1;;;;;;;7.5;100.0;100100;;;;
2022/11/24 01:00:00;;;;;;;1.1;1.1;;;;;;;7.5;100.0;100100;;;;
2022/11/24 01:01:01;;;;;;;1.1;1.1;;;;;;;7.6;100.0;100110;;;;
2022/11/24 01:02:00;;;;;;;1.1;1.1;;;;;;;7.6;100.0;100110;;;;
2022/11/24 01:03:00;;;;;;;1.1;1.1;;;;;;;7.6;100.0;100110;;;;
2022/11/24 01:04:00;;;;;;;1.1;1.1;;;;;;;7.6;100.0;100110;;;;
2022/11/24 01:05:02;;;;;;;1.1;1.1;;;;;;;7.5;100.0;100100;;;;
2022/11/24 01:06:02;;;;;;;1.1;1.1;;;;;;;7.5;100.0;100100;;;;
2022/11/24 01:07:00;;;;;;;1.1;1.1;;;;;;;7.6;100.0;100100;;;;
2022/11/24 01:08:00;;;;;;;1.1;1.1;;;;;;;7.6;100.0;100100;;;;
2022/11/24 01:09:00;;;;;;;1.1;1.1;;;;;;;7.5;100.0;100100;;;;
2022/11/24 01:10:00;;;;;;;1.1;1.1;;;;;;;7.5;100.0;100100;;;;
2022/11/24 01:11:10;;;;;;;1.1;1.1;;;;;;;7.5;100.0;100110;;;;
2022/11/24 01:12:00;;;;;;;1.1;1.1;;;;;;;7.5;100.0;100110;;;;
2022/11/24 01:13:00;;;;;;;1.5;1.5;;;;;;;7.4;100.0;100110;;;;
2022/11/24 01:14:00;;;;;;;1.5;1.5;;;;;;;7.4;100.0;100110;;;;
2022/11/24 01:15:00;;;;;;;1.5;1.5;;;;;;;7.5;100.0;100120;;;;
2022/11/24 01:16:00;;;;;;;1.5;1.5;;;;;;;7.5;100.0;100120;;;;
2022/11/24 01:17:00;;;;;;;1.5;1.5;;;;;;;7.5;100.0;100120;;;;
2022/11/24 01:18:00;;;;;;;1.5;1.5;;;;;;;7.5;100.0;100120;;;;
2022/11/24 01:19:00;;;;;;;1.5;1.5;;;;;;;7.4;100.0;100120;;;;
2022/11/24 01:20:00;;;;;;;1.5;1.5;;;;;;;7.4;100.0;100120;;;;
2022/11/24 01:21:09;;;;;;;1.5;1.5;;;;;;;7.5;100.0;100120;;;;
2022/11/24 01:22:00;;;;;;;1.5;1.5;;;;;;;7.5;100.0;100120;;;;
2022/11/24 01:23:00;;;;;;;1.5;1.5;;;;;;;7.4;100.0;100130;;;;
2022/11/24 01:24:00;;;;;;;1.5;1.5;;;;;;;7.4;100.0;100130;;;;
2022/11/24 01:25:00;;;;;;;1.5;1.5;;;;;;;7.4;100.0;100140;;;;
2022/11/24 01:26:03;;;;;;;1.5;1.5;;;;;;;7.4;100.0;100140;;;;
2022/11/24 01:27:00;;;;;;;1.5;1.5;;;;;;;7.4;100.0;100130;;;;
2022/11/24 01:28:00;;;;;;;1.5;1.5;;;;;;;7.4;100.0;100130;;;;
2022/11/24 01:29:00;;;;;;;1.5;1.5;;;;;;;7.4;100.0;100130;;;;
2022/11/24 01:30:00;;;;;;;1.5;1.5;;;;;;;7.4;100.0;100130;;;;
2022/11/24 01:31:01;;;;;;;1.5;1.5;;;;;;;7.3;100.0;100130;;;;
2022/11/24 01:32:00;;;;;;;1.5;1.5;;;;;;;7.3;100.0;100130;;;;
2022/11/24 01:33:00;;;;;;;1.4;1.4;;;;;;;7.4;100.0;100130;;;;
2022/11/24 01:34:00;;;;;;;1.4;1.4;;;;;;;7.4;100.0;100130;;;;
2022/11/24 01:35:00;;;;;;;1.4;1.4;;;;;;;7.4;100.0;100130;;;;
2022/11/24 01:36:00;;;;;;;1.4;1.4;;;;;;;7.4;100.0;100130;;;;
2022/11/24 01:37:00;;;;;;;1.4;1.4;;;;;;;7.4;100.0;100130;;;;
2022/11/24 01:38:00;;;;;;;1.4;1.4;;;;;;;7.4;100.0;100130;;;;
2022/11/24 01:39:00;;;;;;;1.4;1.4;;;;;;;7.4;100.0;100130;;;;
2022/11/24 01:40:00;;;;;;;1.4;1.4;;;;;;;7.4;100.0;100130;;;;
2022/11/24 01:41:02;;;;;;;1.4;1.4;;;;;;;7.4;100.0;100130;;;;
2022/11/24 01:42:00;;;;;;;1.4;1.4;;;;;;;7.4;100.0;100130;;;;
2022/11/24 01:43:00;;;;;;;1.4;1.4;;;;;;;7.4;100.0;100130;;;;
2022/11/24 01:44:00;;;;;;;1.4;1.4;;;;;;;7.4;100.0;100130;;;;
2022/11/24 01:45:10;;;;;;;1.4;1.4;;;;;;;7.4;100.0;100130;;;;
2022/11/24 01:46:05;;;;;;;1.4;1.4;;;;;;;7.4;100.0;100130;;;;
2022/11/24 01:47:10;;;;;;;1.4;1.4;;;;;;;7.3;100.0;100140;;;;
2022/11/24 01:48:03;;;;;;;1.4;1.4;;;;;;;7.3;100.0;100140;;;;
2022/11/24 01:49:07;;;;;;;1.4;1.4;;;;;;;7.4;100.0;100140;;;;
2022/11/24 01:50:01;;;;;;;1.4;1.4;;;;;;;7.4;100.0;100140;;;;
2022/11/24 01:51:05;;;;;;;1.4;1.4;;;;;;;7.5;100.0;100140;;;;
2022/11/24 01:52:03;;;;;;;1.4;1.4;;;;;;;7.5;100.0;100140;;;;
2022/11/24 01:53:00;;;;;;;1.2;1.2;;;;;;;7.3;100.0;100140;;;;
2022/11/24 01:54:10;;;;;;;1.2;1.2;;;;;;;7.3;100.0;100140;;;;
2022/11/24 01:55:02;;;;;;;1.2;1.2;;;;;;;7.4;100.0;100140;;;;
2022/11/24 01:56:00;;;;;;;1.2;1.2;;;;;;;7.4;100.0;100140;;;;
2022/11/24 01:57:04;;;;;;;1.2;1.2;;;;;;;7.4;100.0;100150;;;;
2022/11/24 01:58:00;;;;;;;1.2;1.2;;;;;;;7.4;100.0;100150;;;;
2022/11/24 01:59:01;;;;;;;1.2;1.2;;;;;;;7.3;100.0;100150;;;;
2022/11/24 02:00:02;;;;;;;1.2;1.2;;;;;;;7.3;100.0;100150;;;;
2022/11/24 02:01:00;;;;;;;1.2;1.2;;;;;;;7.4;100.0;100150;;;;
2022/11/24 02:02:01;;;;;;;1.2;1.2;;;;;;;7.4;100.0;100150;;;;
2022/11/24 02:03:00;;;;;;;1.2;1.2;;;;;;;7.4;100.0;100150;;;;
2022/11/24 02:04:01;;;;;;;1.2;1.2;;;;;;;7.4;100.0;100150;;;;
2022/11/24 02:05:04;;;;;;;1.2;1.2;;;;;;;7.4;100.0;100160;;;;
2022/11/24 02:06:00;;;;;;;1.2;1.2;;;;;;;7.4;100.0;100160;;;;
2022/11/24 02:07:02;;;;;;;1.2;1.2;;;;;;;7.4;100.0;100150;;;;
2022/11/24 02:08:01;;;;;;;1.2;1.2;;;;;;;7.4;100.0;100150;;;;
2022/11/24 02:09:03;;;;;;;1.2;1.2;;;;;;;7.4;100.0;100150;;;;
2022/11/24 02:10:03;;;;;;;1.2;1.2;;;;;;;7.4;100.0;100150;;;;
2022/11/24 02:11:03;;;;;;;1.2;1.2;;;;;;;7.3;100.0;100160;;;;
2022/11/24 02:12:00;;;;;;;1.2;1.2;;;;;;;7.3;100.0;100160;;;;
2022/11/24 02:13:00;;;;;;;1.3;1.3;;;;;;;7.3;100.0;100150;;;;
2022/11/24 02:14:00;;;;;;;1.3;1.3;;;;;;;7.3;100.0;100150;;;;
2022/11/24 02:15:00;;;;;;;1.3;1.3;;;;;;;7.4;100.0;100160;;;;
2022/11/24 02:16:01;;;;;;;1.3;1.3;;;;;;;7.4;100.0;100160;;;;
2022/11/24 02:17:00;;;;;;;1.3;1.3;;;;;;;7.3;100.0;100160;;;;
2022/11/24 02:18:00;;;;;;;1.3;1.3;;;;;;;7.3;100.0;100160;;;;
2022/11/24 02:19:00;;;;;;;1.3;1.3;;;;;;;7.2;100.0;100160;;;;
2022/11/24 02:20:02;;;;;;;1.3;1.3;;;;;;;7.2;100.0;100160;;;;
2022/11/24 02:21:00;;;;;;;1.3;1.3;;;;;;;7.4;100.0;100160;;;;
2022/11/24 02:22:01;;;;;;;1.3;1.3;;;;;;;7.4;100.0;100160;;;;
2022/11/24 02:23:03;;;;;;;1.3;1.3;;;;;;;7.3;100.0;100170;;;;
2022/11/24 02:24:01;;;;;;;1.3;1.3;;;;;;;7.3;100.0;100170;;;;
2022/11/24 02:25:10;;;;;;;1.3;1.3;;;;;;;7.4;100.0;100170;;;;
2022/11/24 02:26:10;;;;;;;1.3;1.3;;;;;;;7.4;100.0;100170;;;;
2022/11/24 02:27:00;;;;;;;1.3;1.3;;;;;;;7.4;100.0;100180;;;;
2022/11/24 02:28:01;;;;;;;1.3;1.3;;;;;;;7.4;100.0;100180;;;;
2022/11/24 02:29:01;;;;;;;1.3;1.3;;;;;;;7.4;100.0;100180;;;;
2022/11/24 02:30:00;;;;;;;1.3;1.3;;;;;;;7.4;100.0;100180;;;;
2022/11/24 02:31:01;;;;;;;1.3;1.3;;;;;;;7.4;100.0;100180;;;;
2022/11/24 02:32:03;;;;;;;1.3;1.3;;;;;;;7.4;100.0;100180;;;;
2022/11/24 02:33:00;;;;;;;1.2;1.2;;;;;;;7.5;100.0;100180;;;;
2022/11/24 02:34:00;;;;;;;1.2;1.2;;;;;;;7.5;100.0;100180;;;;
2022/11/24 02:35:00;;;;;;;1.2;1.2;;;;;;;7.5;100.0;100180;;;;
2022/11/24 02:36:00;;;;;;;1.2;1.2;;;;;;;7.5;100.0;100180;;;;
2022/11/24 02:37:00;;;;;;;1.2;1.2;;;;;;;7.5;100.0;100180;;;;
2022/11/24 02:38:00;;;;;;;1.2;1.2;;;;;;;7.5;100.0;100180;;;;
2022/11/24 02:39:00;;;;;;;1.2;1.2;;;;;;;7.4;100.0;100190;;;;
2022/11/24 02:40:00;;;;;;;1.2;1.2;;;;;;;7.4;100.0;100190;;;;
2022/11/24 02:41:02;;;;;;;1.2;1.2;;;;;;;7.4;100.0;100190;;;;
2022/11/24 02:42:02;;;;;;;1.2;1.2;;;;;;;7.4;100.0;100190;;;;
2022/11/24 02:43:04;;;;;;;1.2;1.2;;;;;;;7.3;100.0;100190;;;;
2022/11/24 02:44:00;;;;;;;1.2;1.2;;;;;;;7.3;100.0;100190;;;;
2022/11/24 02:45:00;;;;;;;1.2;1.2;;;;;;;7.3;100.0;100180;;;;
2022/11/24 02:46:00;;;;;;;1.2;1.2;;;;;;;7.3;100.0;100180;;;;
2022/11/24 02:47:01;;;;;;;1.2;1.2;;;;;;;7.2;100.0;100190;;;;
2022/11/24 02:48:00;;;;;;;1.2;1.2;;;;;;;7.2;100.0;100190;;;;
2022/11/24 02:49:00;;;;;;;1.2;1.2;;;;;;;7.3;100.0;100190;;;;
2022/11/24 02:50:00;;;;;;;1.2;1.2;;;;;;;7.3;100.0;100190;;;;
2022/11/24 02:51:00;;;;;;;1.2;1.2;;;;;;;7.3;100.0;100180;;;;
2022/11/24 02:52:00;;;;;;;1.2;1.2;;;;;;;7.3;100.0;100180;;;;
2022/11/24 02:53:00;;;;;;;1.1;1.1;;;;;;;7.3;100.0;100190;;;;
2022/11/24 02:54:00;;;;;;;1.1;1.1;;;;;;;7.3;100.0;100190;;;;
2022/11/24 02:55:00;;;;;;;1.1;1.1;;;;;;;7.2;100.0;100190;;;;
2022/11/24 02:56:00;;;;;;;1.1;1.1;;;;;;;7.2;100.0;100190;;;;
2022/11/24 02:57:00;;;;;;;1.1;1.1;;;;;;;7.2;100.0;100190;;;;
2022/11/24 02:58:00;;;;;;;1.1;1.1;;;;;;;7.2;100.0;100190;;;;
2022/11/24 02:59:00;;;;;;;1.1;1.1;;;;;;;7.1;100.0;100190;;;;
2022/11/24 03:00:00;;;;;;;1.1;1.1;;;;;;;7.1;100.0;100190;;;;
2022/11/24 03:01:00;;;;;;;1.1;1.1;;;;;;;7.2;100.0;100190;;;;
2022/11/24 03:02:00;;;;;;;1.1;1.1;;;;;;;7.2;100.0;100190;;;;
2022/11/24 03:03:00;;;;;;;1.1;1.1;;;;;;;7.3;100.0;100190;;;;
2022/11/24 03:04:00;;;;;;;1.1;1.1;;;;;;;7.3;100.0;100190;;;;
2022/11/24 03:05:00;;;;;;;1.1;1.1;;;;;;;7.2;100.0;100190;;;;
2022/11/24 03:06:00;;;;;;;1.1;1.1;;;;;;;7.2;100.0;100190;;;;
2022/11/24 03:07:00;;;;;;;1.1;1.1;;;;;;;7.3;100.0;100200;;;;
2022/11/24 03:08:00;;;;;;;1.1;1.1;;;;;;;7.3;100.0;100200;;;;
2022/11/24 03:09:00;;;;;;;1.1;1.1;;;;;;;7.2;100.0;100200;;;;
2022/11/24 03:10:00;;;;;;;1.1;1.1;;;;;;;7.2;100.0;100200;;;;
2022/11/24 03:11:00;;;;;;;1.1;1.1;;;;;;;7.2;100.0;100200;;;;
2022/11/24 03:12:00;;;;;;;1.1;1.1;;;;;;;7.2;100.0;100200;;;;
2022/11/24 03:13:00;;;;;;;1.3;1.3;;;;;;;7.2;100.0;100200;;;;
2022/11/24 03:14:00;;;;;;;1.3;1.3;;;;;;;7.2;100.0;100200;;;;
2022/11/24 03:15:02;;;;;;;1.3;1.3;;;;;;;7.3;100.0;100200;;;;
2022/11/24 03:16:00;;;;;;;1.3;1.3;;;;;;;7.3;100.0;100200;;;;
2022/11/24 03:17:00;;;;;;;1.3;1.3;;;;;;;7.4;100.0;100190;;;;
2022/11/24 03:18:00;;;;;;;1.3;1.3;;;;;;;7.4;100.0;100190;;;;
2022/11/24 03:19:00;;;;;;;1.3;1.3;;;;;;;7.4;100.0;100200;;;;
2022/11/24 03:20:05;;;;;;;1.3;1.3;;;;;;;7.4;100.0;100200;;;;
2022/11/24 03:21:00;;;;;;;1.3;1.3;;;;;;;7.3;100.0;100200;;;;
2022/11/24 03:22:00;;;;;;;1.3;1.3;;;;;;;7.3;100.0;100200;;;;
2022/11/24 03:23:00;;;;;;;1.3;1.3;;;;;;;7.3;100.0;100200;;;;
2022/11/24 03:24:00;;;;;;;1.3;1.3;;;;;;;7.3;100.0;100200;;;;
2022/11/24 03:25:00;;;;;;;1.3;1.3;;;;;;;7.3;100.0;100200;;;;
2022/11/24 03:26:10;;;;;;;1.3;1.3;;;;;;;7.3;100.0;100200;;;;
2022/11/24 03:27:00;;;;;;;1.3;1.3;;;;;;;7.3;100.0;100200;;;;
2022/11/24 03:28:00;;;;;;;1.3;1.3;;;;;;;7.3;100.0;100200;;;;
2022/11/24 03:29:00;;;;;;;1.3;1.3;;;;;;;7.3;100.0;100210;;;;
2022/11/24 03:30:00;;;;;;;1.3;1.3;;;;;;;7.3;100.0;100210;;;;
2022/11/24 03:31:01;;;;;;;1.3;1.3;;;;;;;7.3;100.0;100210;;;;
2022/11/24 03:32:00;;;;;;;1.3;1.3;;;;;;;7.3;100.0;100210;;;;
2022/11/24 03:33:00;;;;;;;1.6;1.6;;;;;;;7.3;100.0;100210;;;;
2022/11/24 03:34:00;;;;;;;1.6;1.6;;;;;;;7.3;100.0;100210;;;;
2022/11/24 03:35:00;;;;;;;1.6;1.6;;;;;;;7.3;100.0;100210;;;;
2022/11/24 03:36:00;;;;;;;1.6;1.6;;;;;;;7.3;100.0;100210;;;;
2022/11/24 03:37:00;;;;;;;1.6;1.6;;;;;;;7.3;100.0;100220;;;;
2022/11/24 03:38:00;;;;;;;1.6;1.6;;;;;;;7.3;100.0;100220;;;;
2022/11/24 03:39:00;;;;;;;1.6;1.6;;;;;;;7.3;100.0;100220;;;;
2022/11/24 03:40:00;;;;;;;1.6;1.6;;;;;;;7.3;100.0;100220;;;;
2022/11/24 03:41:00;;;;;;;1.6;1.6;;;;;;;7.3;100.0;100220;;;;
2022/11/24 03:42:00;;;;;;;1.6;1.6;;;;;;;7.3;100.0;100220;;;;
2022/11/24 03:43:00;;;;;;;1.6;1.6;;;;;;;7.3;100.0;100220;;;;
2022/11/24 03:44:00;;;;;;;1.6;1.6;;;;;;;7.3;100.0;100220;;;;
2022/11/24 03:45:10;;;;;;;1.6;1.6;;;;;;;7.3;100.0;100220;;;;
2022/11/24 03:46:00;;;;;;;1.6;1.6;;;;;;;7.3;100.0;100220;;;;
2022/11/24 03:47:00;;;;;;;1.6;1.6;;;;;;;7.3;100.0;100220;;;;
2022/11/24 03:48:00;;;;;;;1.6;1.6;;;;;;;7.3;100.0;100220;;;;
2022/11/24 03:49:00;;;;;;;1.6;1.6;;;;;;;7.3;100.0;100220;;;;
2022/11/24 03:50:00;;;;;;;1.6;1.6;;;;;;;7.3;100.0;100220;;;;
2022/11/24 03:51:00;;;;;;;1.6;1.6;;;;;;;7.5;100.0;100230;;;;
2022/11/24 03:52:07;;;;;;;1.6;1.6;;;;;;;7.5;100.0;100230;;;;
2022/11/24 03:53:00;;;;;;;1.4;1.4;;;;;;;7.4;100.0;100230;;;;
2022/11/24 03:54:00;;;;;;;1.4;1.4;;;;;;;7.4;100.0;100230;;;;
2022/11/24 03:55:00;;;;;;;1.4;1.4;;;;;;;7.4;100.0;100220;;;;
2022/11/24 03:56:01;;;;;;;1.4;1.4;;;;;;;7.4;100.0;100220;;;;
2022/11/24 03:57:00;;;;;;;1.4;1.4;;;;;;;7.5;100.0;100220;;;;
2022/11/24 03:58:00;;;;;;;1.4;1.4;;;;;;;7.5;100.0;100220;;;;
2022/11/24 03:59:00;;;;;;;1.4;1.4;;;;;;;7.6;100.0;100220;;;;
2022/11/24 04:00:00;;;;;;;1.4;1.4;;;;;;;7.6;100.0;100220;;;;
2022/11/24 04:01:00;;;;;;;1.4;1.4;;;;;;;7.5;100.0;100230;;;;
2022/11/24 04:02:00;;;;;;;1.4;1.4;;;;;;;7.5;100.0;100230;;;;
2022/11/24 04:03:00;;;;;;;1.4;1.4;;;;;;;7.5;100.0;100230;;;;
2022/11/24 04:04:00;;;;;;;1.4;1.4;;;;;;;7.5;100.0;100230;;;;
2022/11/24 04:05:00;;;;;;;1.4;1.4;;;;;;;7.6;100.0;100230;;;;
2022/11/24 04:06:00;;;;;;;1.4;1.4;;;;;;;7.6;100.0;100230;;;;
2022/11/24 04:07:00;;;;;;;1.4;1.4;;;;;;;7.6;100.0;100230;;;;
2022/11/24 04:08:02;;;;;;;1.4;1.4;;;;;;;7.6;100.0;100230;;;;
2022/11/24 04:09:00;;;;;;;1.4;1.4;;;;;;;7.7;100.0;100220;;;;
2022/11/24 04:10:00;;;;;;;1.4;1.4;;;;;;;7.7;100.0;100220;;;;
2022/11/24 04:11:00;;;;;;;1.4;1.4;;;;;;;7.7;100.0;100230;;;;
2022/11/24 04:13:00;;;;;;;1.2;1.2;;;;;;;7.8;100.0;100230;;;;
2022/11/24 04:14:00;;;;;;;1.2;1.2;;;;;;;7.8;100.0;100230;;;;
2022/11/24 04:15:00;;;;;;;1.2;1.2;;;;;;;7.8;100.0;100230;;;;
2022/11/24 04:16:04;;;;;;;1.2;1.2;;;;;;;7.8;100.0;100230;;;;
2022/11/24 04:17:01;;;;;;;1.2;1.2;;;;;;;7.8;100.0;100230;;;;
2022/11/24 04:18:00;;;;;;;1.2;1.2;;;;;;;7.8;100.0;100230;;;;
2022/11/24 04:19:00;;;;;;;1.2;1.2;;;;;;;7.8;100.0;100230;;;;
2022/11/24 04:20:00;;;;;;;1.2;1.2;;;;;;;7.8;100.0;100230;;;;
2022/11/24 04:21:00;;;;;;;1.2;1.2;;;;;;;7.9;100.0;100230;;;;
2022/11/24 04:22:00;;;;;;;1.2;1.2;;;;;;;7.9;100.0;100230;;;;
2022/11/24 04:23:00;;;;;;;1.2;1.2;;;;;;;7.8;100.0;100230;;;;
2022/11/24 04:24:00;;;;;;;1.2;1.2;;;;;;;7.8;100.0;100230;;;;
2022/11/24 04:25:00;;;;;;;1.2;1.2;;;;;;;7.8;100.0;100230;;;;
2022/11/24 04:26:00;;;;;;;1.2;1.2;;;;;;;7.8;100.0;100230;;;;
2022/11/24 04:27:00;;;;;;;1.2;1.2;;;;;;;7.8;100.0;100230;;;;
2022/11/24 04:28:00;;;;;;;1.2;1.2;;;;;;;7.8;100.0;100230;;;;
2022/11/24 04:29:00;;;;;;;1.2;1.2;;;;;;;7.8;100.0;100240;;;;
2022/11/24 04:30:00;;;;;;;1.2;1.2;;;;;;;7.8;100.0;100240;;;;
2022/11/24 04:31:01;;;;;;;1.2;1.2;;;;;;;7.8;100.0;100240;;;;
2022/11/24 04:32:00;;;;;;;1.2;1.2;;;;;;;7.8;100.0;100240;;;;
2022/11/24 04:33:00;;;;;;;1.9;1.9;;;;;;;7.8;100.0;100240;;;;
2022/11/24 04:34:00;;;;;;;1.9;1.9;;;;;;;7.8;100.0;100240;;;;
2022/11/24 04:35:00;;;;;;;1.9;1.9;;;;;;;7.8;100.0;100240;;;;
2022/11/24 04:36:00;;;;;;;1.9;1.9;;;;;;;7.8;100.0;100240;;;;
2022/11/24 04:37:00;;;;;;;1.9;1.9;;;;;;;7.9;100.0;100250;;;;
2022/11/24 04:38:01;;;;;;;1.9;1.9;;;;;;;7.9;100.0;100250;;;;
2022/11/24 04:39:10;;;;;;;1.9;1.9;;;;;;;7.7;100.0;100250;;;;
2022/11/24 04:40:00;;;;;;;1.9;1.9;;;;;;;7.7;100.0;100250;;;;
2022/11/24 04:41:02;;;;;;;1.9;1.9;;;;;;;7.8;100.0;100260;;;;
2022/11/24 04:42:00;;;;;;;1.9;1.9;;;;;;;7.8;100.0;100260;;;;
2022/11/24 04:43:00;;;;;;;1.9;1.9;;;;;;;7.8;100.0;100270;;;;
2022/11/24 04:44:00;;;;;;;1.9;1.9;;;;;;;7.8;100.0;100270;;;;
2022/11/24 04:45:00;;;;;;;1.9;1.9;;;;;;;7.6;100.0;100280;;;;
2022/11/24 04:46:00;;;;;;;1.9;1.9;;;;;;;7.6;100.0;100280;;;;
2022/11/24 04:47:00;;;;;;;1.9;1.9;;;;;;;7.5;100.0;100280;;;;
2022/11/24 04:48:00;;;;;;;1.9;1.9;;;;;;;7.5;100.0;100280;;;;
2022/11/24 04:49:00;;;;;;;1.9;1.9;;;;;;;7.5;100.0;100280;;;;
2022/11/24 04:50:00;;;;;;;1.9;1.9;;;;;;;7.5;100.0;100280;;;;
2022/11/24 04:51:03;;;;;;;1.9;1.9;;;;;;;7.4;100.0;100280;;;;
2022/11/24 04:52:00;;;;;;;1.9;1.9;;;;;;;7.4;100.0;100280;;;;
2022/11/24 04:53:00;;;;;;;1.4;1.4;;;;;;;7.5;100.0;100290;;;;
2022/11/24 04:54:00;;;;;;;1.4;1.4;;;;;;;7.5;100.0;100290;;;;
2022/11/24 04:55:00;;;;;;;1.4;1.4;;;;;;;7.6;100.0;100290;;;;
2022/11/24 04:56:03;;;;;;;1.4;1.4;;;;;;;7.6;100.0;100290;;;;
2022/11/24 04:57:00;;;;;;;1.4;1.4;;;;;;;7.5;100.0;100280;;;;
2022/11/24 04:58:00;;;;;;;1.4;1.4;;;;;;;7.5;100.0;100280;;;;
2022/11/24 04:59:08;;;;;;;1.4;1.4;;;;;;;7.4;100.0;100280;;;;
2022/11/24 05:00:00;;;;;;;1.4;1.4;;;;;;;7.4;100.0;100280;;;;
2022/11/24 05:01:00;;;;;;;1.4;1.4;;;;;;;7.4;100.0;100300;;;;
2022/11/24 05:02:00;;;;;;;1.4;1.4;;;;;;;7.4;100.0;100300;;;;
2022/11/24 05:03:00;;;;;;;1.4;1.4;;;;;;;7.3;100.0;100300;;;;
2022/11/24 05:04:00;;;;;;;1.4;1.4;;;;;;;7.3;100.0;100300;;;;
2022/11/24 05:05:00;;;;;;;1.4;1.4;;;;;;;7.3;100.0;100310;;;;
2022/11/24 05:06:00;;;;;;;1.4;1.4;;;;;;;7.3;100.0;100310;;;;
2022/11/24 05:07:00;;;;;;;1.4;1.4;;;;;;;7.3;100.0;100310;;;;
2022/11/24 05:08:00;;;;;;;1.4;1.4;;;;;;;7.3;100.0;100310;;;;
2022/11/24 05:09:00;;;;;;;1.4;1.4;;;;;;;7.3;100.0;100300;;;;
2022/11/24 05:11:04;;;;;;;1.4;1.4;;;;;;;7.3;100.0;100310;;;;
2022/11/24 05:12:00;;;;;;;1.4;1.4;;;;;;;7.3;100.0;100310;;;;
2022/11/24 05:13:00;;;;;;;1.3;1.3;;;;;;;7.4;100.0;100310;;;;
2022/11/24 05:14:00;;;;;;;1.3;1.3;;;;;;;7.4;100.0;100310;;;;
2022/11/24 05:15:01;;;;;;;1.3;1.3;;;;;;;7.5;100.0;100310;;;;
2022/11/24 05:16:00;;;;;;;1.3;1.3;;;;;;;7.5;100.0;100310;;;;
2022/11/24 05:17:00;;;;;;;1.3;1.3;;;;;;;7.4;100.0;100310;;;;
2022/11/24 05:18:02;;;;;;;1.3;1.3;;;;;;;7.4;100.0;100310;;;;
2022/11/24 05:19:00;;;;;;;1.3;1.3;;;;;;;7.5;100.0;100310;;;;
2022/11/24 05:20:00;;;;;;;1.3;1.3;;;;;;;7.5;100.0;100310;;;;
2022/11/24 05:21:00;;;;;;;1.3;1.3;;;;;;;7.5;100.0;100320;;;;
2022/11/24 05:22:00;;;;;;;1.3;1.3;;;;;;;7.5;100.0;100320;;;;
2022/11/24 05:23:02;;;;;;;1.3;1.3;;;;;;;7.5;100.0;100320;;;;
2022/11/24 05:24:00;;;;;;;1.3;1.3;;;;;;;7.5;100.0;100320;;;;
2022/11/24 05:25:00;;;;;;;1.3;1.3;;;;;;;7.5;100.0;100320;;;;
2022/11/24 05:26:00;;;;;;;1.3;1.3;;;;;;;7.5;100.0;100320;;;;
2022/11/24 05:27:00;;;;;;;1.3;1.3;;;;;;;7.5;100.0;100320;;;;
2022/11/24 05:28:01;;;;;;;1.3;1.3;;;;;;;7.5;100.0;100320;;;;
2022/11/24 05:29:00;;;;;;;1.3;1.3;;;;;;;7.5;100.0;100330;;;;
2022/11/24 05:30:00;;;;;;;1.3;1.3;;;;;;;7.5;100.0;100330;;;;
2022/11/24 05:31:01;;;;;;;1.3;1.3;;;;;;;7.5;100.0;100330;;;;
2022/11/24 05:32:00;;;;;;;1.2;1.2;;;;;;;7.5;100.0;100330;;;;
2022/11/24 05:33:03;;;;;;;1.2;1.2;;;;;;;7.6;100.0;100330;;;;
2022/11/24 05:34:00;;;;;;;1.2;1.2;;;;;;;7.6;100.0;100330;;;;
2022/11/24 05:35:01;;;;;;;1.2;1.2;;;;;;;7.5;100.0;100330;;;;
2022/11/24 05:36:01;;;;;;;1.2;1.2;;;;;;;7.5;100.0;100330;;;;
2022/11/24 05:37:02;;;;;;;1.2;1.2;;;;;;;7.5;100.0;100340;;;;
2022/11/24 05:38:00;;;;;;;1.2;1.2;;;;;;;7.5;100.0;100340;;;;
2022/11/24 05:39:00;;;;;;;1.2;1.2;;;;;;;7.7;100.0;100330;;;;
2022/11/24 05:40:00;;;;;;;1.2;1.2;;;;;;;7.7;100.0;100330;;;;
2022/11/24 05:41:01;;;;;;;1.2;1.2;;;;;;;7.7;100.0;100330;;;;
2022/11/24 05:42:39;;;;;;;1.2;1.2;;;;;;;7.7;100.0;100330;;;;
2022/11/24 05:43:00;;;;;;;1.2;1.2;;;;;;;7.7;100.0;100340;;;;
2022/11/24 05:44:00;;;;;;;1.2;1.2;;;;;;;7.7;100.0;100340;;;;
2022/11/24 05:45:00;;;;;;;1.2;1.2;;;;;;;7.6;100.0;100340;;;;
2022/11/24 05:46:00;;;;;;;1.2;1.2;;;;;;;7.6;100.0;100340;;;;
2022/11/24 05:47:00;;;;;;;1.2;1.2;;;;;;;7.7;100.0;100340;;;;
2022/11/24 05:48:03;;;;;;;1.2;1.2;;;;;;;7.7;100.0;100340;;;;
2022/11/24 05:49:00;;;;;;;1.2;1.2;;;;;;;7.6;100.0;100340;;;;
2022/11/24 05:50:00;;;;;;;1.2;1.2;;;;;;;7.6;100.0;100340;;;;
2022/11/24 05:51:00;;;;;;;1.2;1.2;;;;;;;7.7;100.0;100350;;;;
2022/11/24 05:52:00;;;;;;;1.1;1.1;;;;;;;7.7;100.0;100350;;;;
2022/11/24 05:53:02;;;;;;;1.1;1.1;;;;;;;7.7;100.0;100360;;;;
2022/11/24 05:54:00;;;;;;;1.1;1.1;;;;;;;7.7;100.0;100360;;;;
2022/11/24 05:55:00;;;;;;;1.1;1.1;;;;;;;7.8;100.0;100360;;;;
2022/11/24 05:56:03;;;;;;;1.1;1.1;;;;;;;7.8;100.0;100360;;;;
2022/11/24 05:57:00;;;;;;;1.1;1.1;;;;;;;7.7;100.0;100360;;;;
2022/11/24 05:58:01;;;;;;;1.1;1.1;;;;;;;7.7;100.0;100360;;;;
2022/11/24 05:59:05;;;;;;;1.1;1.1;;;;;;;7.7;100.0;100370;;;;
2022/11/24 06:00:00;;;;;;;1.1;1.1;;;;;;;7.7;100.0;100370;;;;
2022/11/24 06:01:00;;;;;;;1.1;1.1;;;;;;;7.9;100.0;100370;;;;
2022/11/24 06:02:00;;;;;;;1.1;1.1;;;;;;;7.9;100.0;100370;;;;
2022/11/24 06:03:00;;;;;;;1.1;1.1;;;;;;;7.8;100.0;100370;;;;
2022/11/24 06:04:00;;;;;;;1.1;1.1;;;;;;;7.8;100.0;100370;;;;
2022/11/24 06:05:00;;;;;;;1.1;1.1;;;;;;;7.8;100.0;100370;;;;
2022/11/24 06:06:00;;;;;;;1.1;1.1;;;;;;;7.8;100.0;100370;;;;
2022/11/24 06:07:00;;;;;;;1.1;1.1;;;;;;;7.8;100.0;100380;;;;
2022/11/24 06:08:00;;;;;;;1.1;1.1;;;;;;;7.8;100.0;100380;;;;
2022/11/24 06:09:00;;;;;;;1.1;1.1;;;;;;;7.8;100.0;100380;;;;
2022/11/24 06:10:00;;;;;;;1.1;1.1;;;;;;;7.8;100.0;100380;;;;
2022/11/24 06:11:15;;;;;;;1.1;1.1;;;;;;;7.9;100.0;100380;;;;
2022/11/24 06:12:00;;;;;;;1.1;1.1;;;;;;;7.9;100.0;100380;;;;
2022/11/24 06:13:03;;;;;;;1.1;1.1;;;;;;;7.8;100.0;100380;;;;
2022/11/24 06:14:00;;;;;;;1.1;1.1;;;;;;;7.8;100.0;100380;;;;
2022/11/24 06:15:00;;;;;;;1.1;1.1;;;;;;;7.8;100.0;100390;;;;
2022/11/24 06:16:00;;;;;;;1.1;1.1;;;;;;;7.8;100.0;100390;;;;
2022/11/24 06:17:00;;;;;;;1.1;1.1;;;;;;;7.7;100.0;100390;;;;
2022/11/24 06:18:00;;;;;;;1.1;1.1;;;;;;;7.7;100.0;100390;;;;
2022/11/24 06:19:00;;;;;;;1.1;1.1;;;;;;;7.7;100.0;100390;;;;
2022/11/24 06:20:00;;;;;;;1.1;1.1;;;;;;;7.7;100.0;100390;;;;
2022/11/24 06:21:11;;;;;;;1.1;1.1;;;;;;;7.8;100.0;100400;;;;
2022/11/24 06:22:00;;;;;;;1.1;1.1;;;;;;;7.8;100.0;100400;;;;
2022/11/24 06:23:00;;;;;;;1.1;1.1;;;;;;;7.8;100.0;100400;;;;
2022/11/24 06:24:01;;;;;;;1.1;1.1;;;;;;;7.8;100.0;100400;;;;
2022/11/24 06:25:00;;;;;;;1.1;1.1;;;;;;;7.8;100.0;100400;;;;
2022/11/24 06:26:00;;;;;;;1.1;1.1;;;;;;;7.8;100.0;100400;;;;
2022/11/24 06:27:00;;;;;;;1.1;1.1;;;;;;;7.8;100.0;100410;;;;
2022/11/24 06:28:02;;;;;;;1.1;1.1;;;;;;;7.8;100.0;100410;;;;
2022/11/24 06:29:00;;;;;;;1.1;1.1;;;;;;;7.8;100.0;100410;;;;
2022/11/24 06:30:00;;;;;;;1.1;1.1;;;;;;;7.8;100.0;100410;;;;
2022/11/24 06:31:01;;;;;;;1.1;1.1;;;;;;;7.8;100.0;100420;;;;